CST,Max TemperatureF,Mean TemperatureF,Min TemperatureF,Max Dew PointF,MeanDew PointF,Min DewpointF,Max Humidity, Mean Humidity, Min Humidity, Max Sea Level PressureIn, Mean Sea Level PressureIn, Min Sea Level PressureIn, Max VisibilityMiles, Mean VisibilityMiles, Min VisibilityMiles, Max Wind SpeedMPH, Mean Wind SpeedMPH, Max Gust SpeedMPH,PrecipitationIn, CloudCover, Events, WindDirDegrees
2012-2-1,33,30,28,34,31,28,100,100,100,30.08,30.05,29.99,5,1,0,7,3,,0.00,8,Fog-Snow,166
2012-2-2,39,32,24,36,29,25,100,98,81,30.34,30.23,30.09,10,7,0,8,2,,0.00,2,Fog-Snow,77
2012-2-3,30,29,28,30,29,28,100,100,100,30.49,30.44,30.38,7,2,0,10,7,,0.00,8,Fog,64
2012-2-4,33,27,21,34,26,21,100,100,93,30.46,30.39,30.34,10,5,0,13,6,16,0.00,7,Fog-Snow,327
2012-2-5,28,26,24,28,27,25,100,100,100,30.36,30.33,30.26,7,4,1,10,7,,0.00,8,,293
2012-2-6,44,34,23,32,26,21,100,81,57,30.24,30.10,30.06,10,10,5,18,5,22,0.00,0,,290
2012-2-7,28,22,15,21,12,1,86,66,42,30.55,30.48,30.32,10,10,10,16,11,21,0.00,4,,12
2012-2-8,30,18,6,9,4,1,79,58,29,30.50,30.38,30.25,10,10,10,10,4,,0.00,0,,277
2012-2-9,42,26,10,21,13,7,93,66,36,30.22,30.03,29.86,10,10,10,12,5,18,0.00,0,,228
2012-2-10,12,6,0,3,-7,-11,72,55,34,30.52,30.30,30.06,10,10,10,23,17,30,0.00,1,,344
2012-2-11,17,8,-2,0,-8,-15,71,54,32,30.62,30.57,30.51,10,10,10,17,11,29,0.00,0,,301
2012-2-12,32,16,1,1,-3,-8,72,50,19,30.48,30.33,30.12,10,10,10,8,4,,0.00,0,,245
2012-2-13,28,22,17,25,14,3,100,65,49,30.02,29.84,29.72,10,10,10,7,3,,0.00,7,,170
2012-2-14,33,22,10,27,20,10,100,91,70,29.71,29.69,29.65,10,7,0,13,2,,0.00,5,Fog,143
2012-2-15,37,27,17,30,26,18,100,85,65,30.01,29.90,29.77,10,9,5,9,3,,0.00,5,,253
2012-2-16,37,29,21,25,20,16,100,73,48,30.11,30.06,30.02,10,10,10,14,5,23,0.00,1,,275
2012-2-17,35,28,21,25,19,12,100,70,47,30.14,30.02,29.93,10,10,10,17,6,24,0.00,4,,310
2012-2-18,35,24,12,19,13,10,93,67,41,30.24,30.19,30.13,10,10,10,8,4,,0.00,0,,263
2012-2-19,42,30,19,25,20,18,100,72,36,30.13,30.05,29.98,10,10,10,10,3,18,0.00,0,,160
2012-2-20,41,34,28,34,23,19,100,69,49,30.02,29.91,29.71,10,10,2,20,10,33,0.04,5,Rain-Snow,145
2012-2-21,33,32,30,32,29,25,100,92,80,29.59,29.54,29.50,10,9,2,20,11,26,0.00,8,Snow,268
2012-2-22,32,24,15,27,20,16,100,86,64,29.56,29.47,29.40,10,10,10,6,2,,0.00,3,,274
2012-2-23,32,26,19,27,24,18,100,90,75,29.66,29.52,29.39,10,9,7,13,4,,0.03,2,,27
2012-2-24,28,21,14,28,16,7,100,77,63,30.04,29.86,29.71,10,10,4,20,13,31,0.00,7,Snow,308
2012-2-25,24,14,5,19,10,1,92,80,63,30.22,30.12,29.96,10,10,10,20,8,20,0.00,1,,250
2012-2-26,32,26,21,30,22,18,93,83,74,30.01,29.75,29.55,10,10,5,32,17,38,0.00,7,Snow,225
2012-2-27,23,18,12,19,14,9,93,83,73,30.42,30.31,30.04,10,10,10,20,12,28,0.00,3,Snow,290
2012-2-28,33,28,23,30,26,18,100,89,74,30.29,30.09,29.83,10,8,2,17,9,23,0.14,8,Snow,135
2012-2-29,33,32,30,32,31,30,100,96,87,29.54,29.35,29.24,10,4,0,14,7,21,0.20,8,Rain-Snow,41